sensor_id;sensor_type;location;lat;lon;timestamp;pressure;altitude;pressure_sealevel;temperature;humidity
2563;BME280;1291;51.420;6.970;2022-08-19T00:00:06;99754.78;;;45.67;13.68
2563;BME280;1291;51.420;6.970;2022-08-19T00:02:36;99750.88;;;45.39;13.85
2563;BME280;1291;51.420;6.970;2022-08-19T00:05:02;99750.88;;;46.19;13.16
2563;BME280;1291;51.420;6.970;2022-08-19T00:07:28;99751.56;;;45.63;13.64
2563;BME280;1291;51.420;6.970;2022-08-19T00:09:53;99754.53;;;46.05;13.23
2563;BME280;1291;51.420;6.970;2022-08-19T00:12:19;99753.13;;;46.09;13.27
2563;BME280;1291;51.420;6.970;2022-08-19T00:14:47;99757.69;;;46.80;12.69
2563;BME280;1291;51.420;6.970;2022-08-19T00:17:12;99751.88;;;46.40;12.98
2563;BME280;1291;51.420;6.970;2022-08-19T00:19:38;99752.72;;;46.40;12.99
2563;BME280;1291;51.420;6.970;2022-08-19T00:22:04;99754.13;;;46.29;13.23
2563;BME280;1291;51.420;6.970;2022-08-19T00:24:31;99749.50;;;46.08;13.06
2563;BME280;1291;51.420;6.970;2022-08-19T00:26:57;99742.88;;;46.03;13.06
2563;BME280;1291;51.420;6.970;2022-08-19T00:29:24;99752.97;;;46.17;13.22
2563;BME280;1291;51.420;6.970;2022-08-19T00:31:51;99749.13;;;46.11;13.10
2563;BME280;1291;51.420;6.970;2022-08-19T00:34:20;99747.69;;;45.94;13.18
2563;BME280;1291;51.420;6.970;2022-08-19T00:36:47;99741.69;;;46.33;13.09
2563;BME280;1291;51.420;6.970;2022-08-19T00:39:14;99745.22;;;45.63;13.79
2563;BME280;1291;51.420;6.970;2022-08-19T00:41:41;99742.78;;;45.68;13.37
2563;BME280;1291;51.420;6.970;2022-08-19T00:44:15;99735.66;;;45.73;13.16
2563;BME280;1291;51.420;6.970;2022-08-19T00:46:43;99744.09;;;46.15;13.27
2563;BME280;1291;51.420;6.970;2022-08-19T00:49:16;99739.09;;;46.25;13.04
2563;BME280;1291;51.420;6.970;2022-08-19T00:51:47;99734.44;;;46.26;13.19
2563;BME280;1291;51.420;6.970;2022-08-19T00:54:20;99738.69;;;46.28;12.86
2563;BME280;1291;51.420;6.970;2022-08-19T00:56:47;99738.66;;;45.78;13.41
2563;BME280;1291;51.420;6.970;2022-08-19T00:59:13;99738.81;;;46.13;12.92
2563;BME280;1291;51.420;6.970;2022-08-19T01:01:42;99735.50;;;46.25;13.10
2563;BME280;1291;51.420;6.970;2022-08-19T01:04:08;99738.84;;;46.20;13.21
2563;BME280;1291;51.420;6.970;2022-08-19T01:06:35;99729.72;;;46.13;13.18
2563;BME280;1291;51.420;6.970;2022-08-19T01:09:03;99725.88;;;46.35;12.83
2563;BME280;1291;51.420;6.970;2022-08-19T01:11:31;99722.53;;;46.12;13.10
2563;BME280;1291;51.420;6.970;2022-08-19T01:14:02;99727.00;;;46.76;12.34
2563;BME280;1291;51.420;6.970;2022-08-19T01:16:29;99733.91;;;47.00;12.10
2563;BME280;1291;51.420;6.970;2022-08-19T01:18:56;99727.47;;;47.21;12.13
2563;BME280;1291;51.420;6.970;2022-08-19T01:21:37;99732.03;;;47.07;12.32
2563;BME280;1291;51.420;6.970;2022-08-19T01:24:05;99733.81;;;46.24;13.26
2563;BME280;1291;51.420;6.970;2022-08-19T01:26:31;99735.38;;;46.33;12.95
2563;BME280;1291;51.420;6.970;2022-08-19T01:28:58;99739.56;;;46.29;12.96
2563;BME280;1291;51.420;6.970;2022-08-19T01:31:27;99738.34;;;46.38;12.84
2563;BME280;1291;51.420;6.970;2022-08-19T01:33:56;99737.69;;;46.08;12.95
2563;BME280;1291;51.420;6.970;2022-08-19T01:36:30;99734.41;;;46.19;12.85
2563;BME280;1291;51.420;6.970;2022-08-19T01:38:56;99730.88;;;46.25;12.74
2563;BME280;1291;51.420;6.970;2022-08-19T01:41:23;99732.81;;;46.60;12.83
2563;BME280;1291;51.420;6.970;2022-08-19T01:43:50;99727.78;;;46.98;12.46
2563;BME280;1291;51.420;6.970;2022-08-19T01:46:16;99729.16;;;46.81;12.48
2563;BME280;1291;51.420;6.970;2022-08-19T01:48:42;99729.69;;;46.98;12.56
2563;BME280;1291;51.420;6.970;2022-08-19T01:51:09;99733.69;;;46.60;13.00
2563;BME280;1291;51.420;6.970;2022-08-19T01:53:35;99731.03;;;46.45;12.66
2563;BME280;1291;51.420;6.970;2022-08-19T01:56:02;99724.75;;;46.30;12.89
2563;BME280;1291;51.420;6.970;2022-08-19T01:58:33;99725.28;;;46.12;13.17
2563;BME280;1291;51.420;6.970;2022-08-19T02:01:04;99732.06;;;46.79;12.67
2563;BME280;1291;51.420;6.970;2022-08-19T02:03:30;99731.53;;;46.84;12.25
2563;BME280;1291;51.420;6.970;2022-08-19T02:06:00;99730.41;;;46.50;12.91
2563;BME280;1291;51.420;6.970;2022-08-19T02:08:31;99717.88;;;46.12;12.98
2563;BME280;1291;51.420;6.970;2022-08-19T02:10:57;99727.38;;;45.67;13.52
2563;BME280;1291;51.420;6.970;2022-08-19T02:13:23;99727.47;;;46.02;12.86
2563;BME280;1291;51.420;6.970;2022-08-19T02:15:49;99712.84;;;45.73;12.96
2563;BME280;1291;51.420;6.970;2022-08-19T02:18:15;99711.00;;;45.37;13.72
2563;BME280;1291;51.420;6.970;2022-08-19T02:20:41;99710.09;;;45.51;13.58
2563;BME280;1291;51.420;6.970;2022-08-19T02:23:11;99716.69;;;45.57;13.42
2563;BME280;1291;51.420;6.970;2022-08-19T02:25:37;99731.22;;;45.72;13.17
2563;BME280;1291;51.420;6.970;2022-08-19T02:28:03;99724.63;;;45.52;13.58
2563;BME280;1291;51.420;6.970;2022-08-19T02:30:32;99730.41;;;46.00;12.96
2563;BME280;1291;51.420;6.970;2022-08-19T02:33:00;99737.72;;;46.14;13.08
2563;BME280;1291;51.420;6.970;2022-08-19T02:35:26;99738.47;;;46.23;12.50
2563;BME280;1291;51.420;6.970;2022-08-19T02:37:51;99726.38;;;45.38;13.31
2563;BME280;1291;51.420;6.970;2022-08-19T02:40:57;99731.34;;;45.28;13.60
2563;BME280;1291;51.420;6.970;2022-08-19T02:43:23;99732.09;;;45.58;13.33
2563;BME280;1291;51.420;6.970;2022-08-19T02:45:49;99728.34;;;46.52;12.27
2563;BME280;1291;51.420;6.970;2022-08-19T02:48:20;99730.22;;;46.23;12.91
2563;BME280;1291;51.420;6.970;2022-08-19T02:50:48;99732.97;;;46.51;12.72
2563;BME280;1291;51.420;6.970;2022-08-19T02:53:18;99729.03;;;46.32;12.55
2563;BME280;1291;51.420;6.970;2022-08-19T02:55:47;99732.00;;;45.88;13.29
2563;BME280;1291;51.420;6.970;2022-08-19T02:58:14;99735.88;;;45.57;13.50
2563;BME280;1291;51.420;6.970;2022-08-19T03:00:48;99740.59;;;45.27;13.83
2563;BME280;1291;51.420;6.970;2022-08-19T03:03:15;99740.84;;;45.47;13.21
2563;BME280;1291;51.420;6.970;2022-08-19T03:05:41;99731.03;;;45.37;13.71
2563;BME280;1291;51.420;6.970;2022-08-19T03:08:08;99737.69;;;44.98;13.74
2563;BME280;1291;51.420;6.970;2022-08-19T03:10:40;99742.75;;;46.32;12.74
2563;BME280;1291;51.420;6.970;2022-08-19T03:13:07;99734.16;;;45.92;13.25
2563;BME280;1291;51.420;6.970;2022-08-19T03:15:33;99729.59;;;46.28;12.95
2563;BME280;1291;51.420;6.970;2022-08-19T03:17:59;99733.66;;;46.88;12.34
2563;BME280;1291;51.420;6.970;2022-08-19T03:20:24;99733.66;;;46.32;12.45
2563;BME280;1291;51.420;6.970;2022-08-19T03:22:51;99730.59;;;45.98;12.86
2563;BME280;1291;51.420;6.970;2022-08-19T03:25:17;99732.31;;;46.21;12.71
2563;BME280;1291;51.420;6.970;2022-08-19T03:27:42;99737.94;;;46.98;12.32
2563;BME280;1291;51.420;6.970;2022-08-19T03:30:09;99734.31;;;47.45;11.46
2563;BME280;1291;51.420;6.970;2022-08-19T03:32:35;99733.47;;;47.51;11.40
2563;BME280;1291;51.420;6.970;2022-08-19T03:35:01;99739.47;;;47.75;11.39
2563;BME280;1291;51.420;6.970;2022-08-19T03:37:27;99739.41;;;46.65;12.20
2563;BME280;1291;51.420;6.970;2022-08-19T03:39:53;99738.06;;;46.54;12.67
2563;BME280;1291;51.420;6.970;2022-08-19T03:42:21;99733.63;;;46.25;12.68
2563;BME280;1291;51.420;6.970;2022-08-19T03:44:47;99734.22;;;46.21;13.02
2563;BME280;1291;51.420;6.970;2022-08-19T03:47:12;99735.25;;;46.20;12.65
2563;BME280;1291;51.420;6.970;2022-08-19T03:49:42;99741.31;;;46.36;12.99
2563;BME280;1291;51.420;6.970;2022-08-19T03:52:08;99734.06;;;46.57;12.24
2563;BME280;1291;51.420;6.970;2022-08-19T03:54:34;99732.47;;;46.41;12.79
2563;BME280;1291;51.420;6.970;2022-08-19T03:56:59;99724.19;;;46.69;12.28
2563;BME280;1291;51.420;6.970;2022-08-19T03:59:28;99738.75;;;46.91;12.14
2563;BME280;1291;51.420;6.970;2022-08-19T04:01:56;99737.22;;;46.89;12.11
2563;BME280;1291;51.420;6.970;2022-08-19T04:04:22;99738.06;;;46.54;12.25
2563;BME280;1291;51.420;6.970;2022-08-19T04:06:48;99742.22;;;47.13;12.34
2563;BME280;1291;51.420;6.970;2022-08-19T04:09:14;99750.03;;;46.75;12.34
2563;BME280;1291;51.420;6.970;2022-08-19T04:11:43;99736.84;;;46.92;12.37
2563;BME280;1291;51.420;6.970;2022-08-19T04:14:18;99742.63;;;47.10;11.85
2563;BME280;1291;51.420;6.970;2022-08-19T04:16:45;99737.56;;;47.14;12.39
2563;BME280;1291;51.420;6.970;2022-08-19T04:19:12;99740.78;;;46.83;12.30
2563;BME280;1291;51.420;6.970;2022-08-19T04:21:38;99738.59;;;47.06;11.95
2563;BME280;1291;51.420;6.970;2022-08-19T04:24:04;99741.09;;;46.66;12.54
2563;BME280;1291;51.420;6.970;2022-08-19T04:26:33;99739.81;;;46.62;12.71
2563;BME280;1291;51.420;6.970;2022-08-19T04:29:01;99740.28;;;46.72;12.38
2563;BME280;1291;51.420;6.970;2022-08-19T04:31:29;99739.66;;;46.77;12.04
2563;BME280;1291;51.420;6.970;2022-08-19T04:33:59;99734.66;;;46.81;12.39
2563;BME280;1291;51.420;6.970;2022-08-19T04:36:27;99743.22;;;46.14;12.97
2563;BME280;1291;51.420;6.970;2022-08-19T04:38:55;99751.03;;;46.67;12.24
2563;BME280;1291;51.420;6.970;2022-08-19T04:41:21;99746.50;;;46.53;12.56
2563;BME280;1291;51.420;6.970;2022-08-19T04:44:06;99751.84;;;46.61;12.42
2563;BME280;1291;51.420;6.970;2022-08-19T04:46:32;99750.31;;;46.52;12.50
2563;BME280;1291;51.420;6.970;2022-08-19T04:48:59;99754.13;;;46.58;12.80
2563;BME280;1291;51.420;6.970;2022-08-19T04:51:25;99750.09;;;46.53;12.60
2563;BME280;1291;51.420;6.970;2022-08-19T04:53:51;99759.34;;;46.03;13.19
2563;BME280;1291;51.420;6.970;2022-08-19T04:56:18;99758.69;;;46.01;12.92
2563;BME280;1291;51.420;6.970;2022-08-19T04:58:52;99756.06;;;46.35;12.62
2563;BME280;1291;51.420;6.970;2022-08-19T05:01:27;99769.97;;;46.55;12.92
2563;BME280;1291;51.420;6.970;2022-08-19T05:03:54;99766.03;;;46.65;12.57
2563;BME280;1291;51.420;6.970;2022-08-19T05:06:21;99779.03;;;45.85;13.04
2563;BME280;1291;51.420;6.970;2022-08-19T05:08:47;99773.50;;;46.78;12.39
2563;BME280;1291;51.420;6.970;2022-08-19T05:11:23;99773.25;;;46.72;12.46
2563;BME280;1291;51.420;6.970;2022-08-19T05:13:49;99772.47;;;47.75;11.89
2563;BME280;1291;51.420;6.970;2022-08-19T05:16:17;99769.50;;;47.63;11.79
2563;BME280;1291;51.420;6.970;2022-08-19T05:18:44;99778.16;;;47.12;12.32
2563;BME280;1291;51.420;6.970;2022-08-19T05:21:28;99785.03;;;46.94;12.14
2563;BME280;1291;51.420;6.970;2022-08-19T05:24:14;99786.06;;;47.22;12.14
2563;BME280;1291;51.420;6.970;2022-08-19T05:26:42;99786.50;;;47.32;12.08
2563;BME280;1291;51.420;6.970;2022-08-19T05:29:09;99788.31;;;47.60;12.39
2563;BME280;1291;51.420;6.970;2022-08-19T05:31:36;99790.59;;;47.43;12.34
2563;BME280;1291;51.420;6.970;2022-08-19T05:34:02;99794.50;;;47.68;12.04
2563;BME280;1291;51.420;6.970;2022-08-19T05:36:32;99793.72;;;47.40;12.27
2563;BME280;1291;51.420;6.970;2022-08-19T05:39:03;99789.91;;;48.02;11.71
2563;BME280;1291;51.420;6.970;2022-08-19T05:41:29;99783.69;;;47.67;11.65
2563;BME280;1291;51.420;6.970;2022-08-19T05:44:01;99795.00;;;47.02;12.55
2563;BME280;1291;51.420;6.970;2022-08-19T05:46:28;99801.13;;;47.39;12.28
2563;BME280;1291;51.420;6.970;2022-08-19T05:48:54;99790.22;;;47.11;12.61
2563;BME280;1291;51.420;6.970;2022-08-19T05:51:22;99797.66;;;47.59;12.14
2563;BME280;1291;51.420;6.970;2022-08-19T05:53:48;99802.84;;;47.40;12.37
2563;BME280;1291;51.420;6.970;2022-08-19T05:56:15;99804.19;;;46.81;12.83
2563;BME280;1291;51.420;6.970;2022-08-19T05:58:42;99794.50;;;47.75;12.22
2563;BME280;1291;51.420;6.970;2022-08-19T06:01:14;99797.31;;;48.08;11.64
2563;BME280;1291;51.420;6.970;2022-08-19T06:03:40;99786.97;;;48.17;11.64
2563;BME280;1291;51.420;6.970;2022-08-19T06:06:08;99781.66;;;48.22;11.99
2563;BME280;1291;51.420;6.970;2022-08-19T06:08:35;99778.06;;;48.22;11.93
2563;BME280;1291;51.420;6.970;2022-08-19T06:11:21;99779.75;;;47.96;12.16
2563;BME280;1291;51.420;6.970;2022-08-19T06:13:49;99787.16;;;47.96;11.95
2563;BME280;1291;51.420;6.970;2022-08-19T06:16:30;99797.72;;;47.85;12.19
2563;BME280;1291;51.420;6.970;2022-08-19T06:18:59;99787.31;;;47.74;12.32
2563;BME280;1291;51.420;6.970;2022-08-19T06:21:27;99788.88;;;48.10;12.14
2563;BME280;1291;51.420;6.970;2022-08-19T06:23:54;99797.19;;;47.13;12.83
2563;BME280;1291;51.420;6.970;2022-08-19T06:26:21;99793.31;;;48.24;11.95
2563;BME280;1291;51.420;6.970;2022-08-19T06:28:47;99791.38;;;46.67;13.56
2563;BME280;1291;51.420;6.970;2022-08-19T06:31:20;99795.00;;;47.99;12.30
2563;BME280;1291;51.420;6.970;2022-08-19T06:33:47;99793.34;;;47.01;13.12
2563;BME280;1291;51.420;6.970;2022-08-19T06:36:27;99792.69;;;47.41;12.46
2563;BME280;1291;51.420;6.970;2022-08-19T06:38:55;99789.03;;;47.88;12.21
2563;BME280;1291;51.420;6.970;2022-08-19T06:41:25;99789.91;;;47.96;12.21
2563;BME280;1291;51.420;6.970;2022-08-19T06:43:51;99787.34;;;47.87;12.23
2563;BME280;1291;51.420;6.970;2022-08-19T06:46:18;99792.66;;;47.34;12.67
2563;BME280;1291;51.420;6.970;2022-08-19T06:48:45;99794.28;;;47.22;12.80
2563;BME280;1291;51.420;6.970;2022-08-19T06:51:13;99795.56;;;46.34;13.89
2563;BME280;1291;51.420;6.970;2022-08-19T06:53:41;99798.94;;;46.86;13.48
2563;BME280;1291;51.420;6.970;2022-08-19T06:56:14;99798.22;;;45.85;13.91
2563;BME280;1291;51.420;6.970;2022-08-19T06:58:40;99799.97;;;44.52;15.48
2563;BME280;1291;51.420;6.970;2022-08-19T07:01:06;99804.25;;;43.45;16.59
2563;BME280;1291;51.420;6.970;2022-08-19T07:03:33;99798.97;;;46.36;13.70
2563;BME280;1291;51.420;6.970;2022-08-19T07:06:08;99803.47;;;47.01;13.43
2563;BME280;1291;51.420;6.970;2022-08-19T07:08:35;99803.38;;;46.59;13.36
2563;BME280;1291;51.420;6.970;2022-08-19T07:11:05;99787.72;;;47.71;12.74
2563;BME280;1291;51.420;6.970;2022-08-19T07:13:32;99795.66;;;48.27;11.95
2563;BME280;1291;51.420;6.970;2022-08-19T07:16:10;99792.06;;;48.34;12.31
2563;BME280;1291;51.420;6.970;2022-08-19T07:18:36;99789.72;;;48.44;11.87
2563;BME280;1291;51.420;6.970;2022-08-19T07:21:23;99801.38;;;47.99;12.28
2563;BME280;1291;51.420;6.970;2022-08-19T07:23:50;99801.72;;;47.83;12.59
2563;BME280;1291;51.420;6.970;2022-08-19T07:26:28;99811.88;;;47.21;12.74
2563;BME280;1291;51.420;6.970;2022-08-19T07:28:54;99816.63;;;48.15;12.18
2563;BME280;1291;51.420;6.970;2022-08-19T07:31:23;99827.88;;;48.47;11.93
2563;BME280;1291;51.420;6.970;2022-08-19T07:33:51;99829.66;;;47.80;12.48
2563;BME280;1291;51.420;6.970;2022-08-19T07:36:20;99828.38;;;47.82;12.61
2563;BME280;1291;51.420;6.970;2022-08-19T07:38:50;99828.69;;;48.27;12.28
2563;BME280;1291;51.420;6.970;2022-08-19T07:41:18;99844.91;;;47.89;12.61
2563;BME280;1291;51.420;6.970;2022-08-19T07:43:44;99839.97;;;48.33;12.39
2563;BME280;1291;51.420;6.970;2022-08-19T07:46:11;99842.72;;;48.33;12.49
2563;BME280;1291;51.420;6.970;2022-08-19T07:48:40;99848.28;;;47.91;12.60
2563;BME280;1291;51.420;6.970;2022-08-19T07:51:07;99850.81;;;47.31;13.23
2563;BME280;1291;51.420;6.970;2022-08-19T07:53:34;99848.47;;;47.76;12.85
2563;BME280;1291;51.420;6.970;2022-08-19T07:55:59;99853.91;;;48.11;12.45
2563;BME280;1291;51.420;6.970;2022-08-19T07:58:31;99858.06;;;47.10;13.64
2563;BME280;1291;51.420;6.970;2022-08-19T08:00:57;99858.41;;;48.79;12.12
2563;BME280;1291;51.420;6.970;2022-08-19T08:03:23;99866.25;;;48.82;12.02
2563;BME280;1291;51.420;6.970;2022-08-19T08:06:08;99870.19;;;47.58;13.22
2563;BME280;1291;51.420;6.970;2022-08-19T08:08:52;99870.72;;;47.81;12.87
2563;BME280;1291;51.420;6.970;2022-08-19T08:11:37;99864.75;;;48.39;12.80
2563;BME280;1291;51.420;6.970;2022-08-19T08:14:03;99859.81;;;49.21;12.00
2563;BME280;1291;51.420;6.970;2022-08-19T08:16:30;99867.28;;;47.66;13.50
2563;BME280;1291;51.420;6.970;2022-08-19T08:19:00;99865.19;;;48.69;12.58
2563;BME280;1291;51.420;6.970;2022-08-19T08:21:26;99868.75;;;48.97;12.05
2563;BME280;1291;51.420;6.970;2022-08-19T08:23:51;99870.00;;;48.27;12.87
2563;BME280;1291;51.420;6.970;2022-08-19T08:26:18;99867.69;;;48.91;12.21
2563;BME280;1291;51.420;6.970;2022-08-19T08:28:43;99869.03;;;47.73;13.25
2563;BME280;1291;51.420;6.970;2022-08-19T08:31:10;99868.53;;;48.98;12.42
2563;BME280;1291;51.420;6.970;2022-08-19T08:33:35;99879.91;;;46.62;14.21
2563;BME280;1291;51.420;6.970;2022-08-19T08:36:04;99877.38;;;48.00;12.97
2563;BME280;1291;51.420;6.970;2022-08-19T08:38:31;99879.50;;;46.65;14.01
2563;BME280;1291;51.420;6.970;2022-08-19T08:41:03;99876.59;;;48.53;12.27
2563;BME280;1291;51.420;6.970;2022-08-19T08:43:39;99882.16;;;47.85;12.43
2563;BME280;1291;51.420;6.970;2022-08-19T08:46:13;99876.19;;;48.96;11.62
2563;BME280;1291;51.420;6.970;2022-08-19T08:49:04;99883.09;;;49.52;11.21
2563;BME280;1291;51.420;6.970;2022-08-19T08:51:46;99879.78;;;48.37;12.34
2563;BME280;1291;51.420;6.970;2022-08-19T08:54:15;99877.88;;;47.69;12.98
2563;BME280;1291;51.420;6.970;2022-08-19T08:56:44;99872.56;;;48.36;12.46
2563;BME280;1291;51.420;6.970;2022-08-19T08:59:28;99869.94;;;47.94;12.46
2563;BME280;1291;51.420;6.970;2022-08-19T09:02:01;99873.09;;;46.36;13.27
2563;BME280;1291;51.420;6.970;2022-08-19T09:04:28;99871.22;;;47.98;12.00
2563;BME280;1291;51.420;6.970;2022-08-19T09:09:49;99870.44;;;48.91;11.74
2563;BME280;1291;51.420;6.970;2022-08-19T09:12:42;99871.31;;;48.31;12.09
2563;BME280;1291;51.420;6.970;2022-08-19T09:15:12;99866.16;;;47.95;12.38
2563;BME280;1291;51.420;6.970;2022-08-19T09:17:38;99873.72;;;47.93;11.97
2563;BME280;1291;51.420;6.970;2022-08-19T09:22:40;99866.66;;;49.05;11.35
2563;BME280;1291;51.420;6.970;2022-08-19T09:25:11;99872.19;;;46.79;12.35
2563;BME280;1291;51.420;6.970;2022-08-19T09:27:38;99865.25;;;49.55;10.74
2563;BME280;1291;51.420;6.970;2022-08-19T09:30:06;99870.13;;;47.44;11.82
2563;BME280;1291;51.420;6.970;2022-08-19T09:32:32;99869.53;;;48.04;11.42
2563;BME280;1291;51.420;6.970;2022-08-19T09:34:59;99875.28;;;48.09;11.35
2563;BME280;1291;51.420;6.970;2022-08-19T09:37:26;99874.75;;;47.44;11.78
2563;BME280;1291;51.420;6.970;2022-08-19T09:39:51;99867.06;;;48.36;11.20
2563;BME280;1291;51.420;6.970;2022-08-19T09:42:19;99868.34;;;49.00;10.67
2563;BME280;1291;51.420;6.970;2022-08-19T09:44:45;99867.44;;;46.02;13.16
2563;BME280;1291;51.420;6.970;2022-08-19T09:47:12;99861.13;;;48.65;10.72
2563;BME280;1291;51.420;6.970;2022-08-19T09:49:39;99871.53;;;49.75;10.09
2563;BME280;1291;51.420;6.970;2022-08-19T09:52:08;99870.50;;;47.76;11.92
2563;BME280;1291;51.420;6.970;2022-08-19T09:54:35;99870.16;;;47.16;12.39
2563;BME280;1291;51.420;6.970;2022-08-19T09:57:00;99862.22;;;49.70;10.41
2563;BME280;1291;51.420;6.970;2022-08-19T09:59:27;99866.53;;;46.81;12.57
2563;BME280;1291;51.420;6.970;2022-08-19T10:01:53;99861.47;;;46.56;12.38
2563;BME280;1291;51.420;6.970;2022-08-19T10:04:20;99866.25;;;47.32;12.25
2563;BME280;1291;51.420;6.970;2022-08-19T10:06:47;99860.56;;;47.88;11.38
2563;BME280;1291;51.420;6.970;2022-08-19T10:09:15;99851.50;;;50.25;9.98
2563;BME280;1291;51.420;6.970;2022-08-19T10:11:42;99855.63;;;48.79;10.85
2563;BME280;1291;51.420;6.970;2022-08-19T10:14:09;99861.91;;;49.33;10.89
2563;BME280;1291;51.420;6.970;2022-08-19T10:16:36;99862.53;;;50.82;9.72
2563;BME280;1291;51.420;6.970;2022-08-19T10:19:02;99859.78;;;47.95;11.68
2563;BME280;1291;51.420;6.970;2022-08-19T10:21:30;99856.91;;;48.56;11.33
2563;BME280;1291;51.420;6.970;2022-08-19T10:23:59;99861.56;;;48.36;11.34
2563;BME280;1291;51.420;6.970;2022-08-19T10:26:27;99861.47;;;46.56;12.40
2563;BME280;1291;51.420;6.970;2022-08-19T10:28:54;99860.13;;;47.78;11.45
2563;BME280;1291;51.420;6.970;2022-08-19T10:31:29;99856.91;;;48.89;11.20
2563;BME280;1291;51.420;6.970;2022-08-19T10:33:56;99848.63;;;48.83;10.93
2563;BME280;1291;51.420;6.970;2022-08-19T10:36:27;99847.38;;;48.39;11.09
2563;BME280;1291;51.420;6.970;2022-08-19T10:38:55;99841.38;;;48.02;11.81
2563;BME280;1291;51.420;6.970;2022-08-19T10:41:30;99849.41;;;47.97;11.44
2563;BME280;1291;51.420;6.970;2022-08-19T10:44:04;99854.63;;;47.02;12.02
2563;BME280;1291;51.420;6.970;2022-08-19T10:46:31;99846.31;;;48.86;10.79
2563;BME280;1291;51.420;6.970;2022-08-19T10:48:59;99845.63;;;49.18;10.68
2563;BME280;1291;51.420;6.970;2022-08-19T10:51:26;99844.41;;;48.60;10.91
2563;BME280;1291;51.420;6.970;2022-08-19T10:54:10;99846.75;;;48.77;11.06
2563;BME280;1291;51.420;6.970;2022-08-19T10:56:35;99844.03;;;47.68;11.86
2563;BME280;1291;51.420;6.970;2022-08-19T10:59:19;99848.59;;;47.54;12.17
2563;BME280;1291;51.420;6.970;2022-08-19T11:01:49;99844.06;;;49.42;10.71
2563;BME280;1291;51.420;6.970;2022-08-19T11:04:16;99848.41;;;49.04;10.71
2563;BME280;1291;51.420;6.970;2022-08-19T11:06:48;99853.31;;;48.29;11.01
2563;BME280;1291;51.420;6.970;2022-08-19T11:09:16;99846.28;;;48.20;11.41
2563;BME280;1291;51.420;6.970;2022-08-19T11:11:41;99858.31;;;47.50;11.85
2563;BME280;1291;51.420;6.970;2022-08-19T11:14:12;99853.94;;;46.65;11.69
2563;BME280;1291;51.420;6.970;2022-08-19T11:16:40;99860.09;;;47.65;11.31
2563;BME280;1291;51.420;6.970;2022-08-19T11:19:08;99855.84;;;48.30;10.47
2563;BME280;1291;51.420;6.970;2022-08-19T11:21:37;99854.22;;;47.88;11.39
2563;BME280;1291;51.420;6.970;2022-08-19T11:24:06;99845.38;;;49.84;9.91
2563;BME280;1291;51.420;6.970;2022-08-19T11:26:34;99836.66;;;50.19;9.32
2563;BME280;1291;51.420;6.970;2022-08-19T11:29:00;99850.47;;;48.02;11.37
2563;BME280;1291;51.420;6.970;2022-08-19T11:31:31;99850.56;;;48.69;10.83
2563;BME280;1291;51.420;6.970;2022-08-19T11:34:03;99851.09;;;49.44;10.17
2563;BME280;1291;51.420;6.970;2022-08-19T11:36:30;99834.50;;;50.53;9.14
2563;BME280;1291;51.420;6.970;2022-08-19T11:38:56;99845.13;;;47.39;10.99
2563;BME280;1291;51.420;6.970;2022-08-19T11:41:23;99834.00;;;49.09;9.86
2563;BME280;1291;51.420;6.970;2022-08-19T11:43:49;99837.84;;;48.75;10.06
2563;BME280;1291;51.420;6.970;2022-08-19T11:46:16;99837.81;;;49.08;9.89
2563;BME280;1291;51.420;6.970;2022-08-19T11:48:42;99828.94;;;48.53;9.43
2563;BME280;1291;51.420;6.970;2022-08-19T11:51:20;99835.06;;;48.21;10.49
2563;BME280;1291;51.420;6.970;2022-08-19T11:53:46;99837.25;;;47.71;10.60
2563;BME280;1291;51.420;6.970;2022-08-19T11:56:12;99834.66;;;48.38;10.11
2563;BME280;1291;51.420;6.970;2022-08-19T11:58:38;99836.53;;;48.17;9.88
2563;BME280;1291;51.420;6.970;2022-08-19T12:01:06;99831.97;;;49.88;9.08
2563;BME280;1291;51.420;6.970;2022-08-19T12:03:32;99829.94;;;48.05;10.17
2563;BME280;1291;51.420;6.970;2022-08-19T12:06:03;99818.81;;;49.45;9.53
2563;BME280;1291;51.420;6.970;2022-08-19T12:08:29;99830.81;;;48.25;10.34
2563;BME280;1291;51.420;6.970;2022-08-19T12:10:54;99830.31;;;49.80;9.40
2563;BME280;1291;51.420;6.970;2022-08-19T12:13:19;99829.91;;;47.37;10.65
2563;BME280;1291;51.420;6.970;2022-08-19T12:15:46;99817.63;;;51.05;8.00
2563;BME280;1291;51.420;6.970;2022-08-19T12:18:12;99830.53;;;49.27;9.49
2563;BME280;1291;51.420;6.970;2022-08-19T12:20:40;99818.47;;;51.42;8.35
2563;BME280;1291;51.420;6.970;2022-08-19T12:23:07;99817.22;;;51.57;8.61
2563;BME280;1291;51.420;6.970;2022-08-19T12:25:34;99819.63;;;51.35;8.54
2563;BME280;1291;51.420;6.970;2022-08-19T12:27:59;99814.94;;;48.81;9.68
2563;BME280;1291;51.420;6.970;2022-08-19T12:30:25;99809.59;;;50.28;8.97
2563;BME280;1291;51.420;6.970;2022-08-19T12:32:50;99812.56;;;51.20;8.61
2563;BME280;1291;51.420;6.970;2022-08-19T12:35:19;99806.34;;;51.25;7.76
2563;BME280;1291;51.420;6.970;2022-08-19T12:37:46;99805.34;;;49.10;9.47
2563;BME280;1291;51.420;6.970;2022-08-19T12:40:15;99807.09;;;51.32;7.66
2563;BME280;1291;51.420;6.970;2022-08-19T12:42:42;99802.41;;;50.96;8.14
2563;BME280;1291;51.420;6.970;2022-08-19T12:45:09;99797.38;;;52.44;7.57
2563;BME280;1291;51.420;6.970;2022-08-19T12:47:36;99807.06;;;50.77;8.29
2563;BME280;1291;51.420;6.970;2022-08-19T12:50:02;99801.19;;;51.29;7.67
2563;BME280;1291;51.420;6.970;2022-08-19T12:52:29;99806.47;;;51.30;7.63
2563;BME280;1291;51.420;6.970;2022-08-19T12:54:57;99808.19;;;52.34;7.57
2563;BME280;1291;51.420;6.970;2022-08-19T12:57:25;99805.59;;;49.60;8.88
2563;BME280;1291;51.420;6.970;2022-08-19T12:59:53;99806.75;;;52.19;7.11
2563;BME280;1291;51.420;6.970;2022-08-19T13:02:22;99805.56;;;49.99;8.49
2563;BME280;1291;51.420;6.970;2022-08-19T13:04:47;99801.56;;;51.32;7.04
2563;BME280;1291;51.420;6.970;2022-08-19T13:07:13;99807.13;;;51.14;7.37
2563;BME280;1291;51.420;6.970;2022-08-19T13:09:38;99802.59;;;51.01;7.25
2563;BME280;1291;51.420;6.970;2022-08-19T13:12:07;99795.28;;;50.63;7.44
2563;BME280;1291;51.420;6.970;2022-08-19T13:14:37;99801.88;;;51.06;7.77
2563;BME280;1291;51.420;6.970;2022-08-19T13:17:03;99796.72;;;52.18;7.08
2563;BME280;1291;51.420;6.970;2022-08-19T13:19:28;99799.69;;;51.63;7.14
2563;BME280;1291;51.420;6.970;2022-08-19T13:21:56;99796.78;;;51.88;6.94
2563;BME280;1291;51.420;6.970;2022-08-19T13:24:21;99789.13;;;50.86;7.48
2563;BME280;1291;51.420;6.970;2022-08-19T13:26:47;99782.50;;;50.18;7.92
2563;BME280;1291;51.420;6.970;2022-08-19T13:29:13;99783.75;;;51.10;7.71
2563;BME280;1291;51.420;6.970;2022-08-19T13:31:57;99779.38;;;52.11;7.30
2563;BME280;1291;51.420;6.970;2022-08-19T13:34:42;99772.34;;;51.97;6.85